createdAt,value
2019-05-11T03:28:08.261Z,423
2019-05-11T03:30:28.426Z,3847
2019-05-11T03:35:28.528Z,7413
2019-05-11T03:40:28.606Z,10200
2019-05-11T03:45:18.714Z,10200
2019-05-11T03:50:18.928Z,12126
2019-05-11T03:55:19.031Z,13828
2019-05-11T04:00:19.093Z,15032
2019-05-11T04:05:19.238Z,15582
2019-05-11T04:10:19.376Z,16738
2019-05-11T04:15:19.522Z,18347
2019-05-11T04:20:19.689Z,20103
2019-05-11T04:25:19.849Z,21678
2019-05-11T04:30:19.921Z,23102
2019-05-11T04:35:19.987Z,24338
2019-05-11T04:40:20.088Z,25081
2019-05-11T04:45:20.219Z,25452
2019-05-11T04:50:20.367Z,25943
2019-05-11T04:55:20.452Z,26678
2019-05-11T05:00:20.603Z,27499
2019-05-11T05:05:20.724Z,27395
2019-05-11T05:15:20.954Z,26277
2019-05-11T05:20:21.079Z,25402
2019-05-11T05:30:21.392Z,27931
2019-05-11T05:35:21.593Z,29572
2019-05-11T05:40:21.666Z,29996
2019-05-11T05:45:21.838Z,30977
2019-05-11T05:50:21.926Z,31173
2019-05-11T05:55:22.036Z,31487
2019-05-11T06:00:22.171Z,32254
2019-05-11T06:05:22.305Z,32543
2019-05-11T06:10:22.377Z,31331
2019-05-11T06:15:12.505Z,31530
2019-05-11T06:20:12.638Z,33326
2019-05-11T06:25:12.868Z,34241
2019-05-11T06:30:13.152Z,34355
2019-05-11T06:39:53.469Z,33051
2019-05-11T06:45:03.586Z,33114
2019-05-11T06:54:53.829Z,31795
2019-05-11T07:01:24.030Z,31026
2019-05-11T07:06:26.917Z,31026
2019-05-11T07:11:24.175Z,35794
2019-05-11T07:16:24.358Z,33670
2019-05-11T07:21:24.396Z,33670
2019-05-11T07:31:24.605Z,31902
2019-05-11T07:36:24.808Z,31057
2019-05-11T07:41:24.893Z,30968
2019-05-11T07:46:25.020Z,31789
2019-05-11T07:51:15.111Z,31152
2019-05-11T07:56:15.206Z,30587
2019-05-11T08:00:55.284Z,31285
2019-05-11T08:15:57.749Z,32232
2019-05-11T08:30:57.868Z,33015
2019-05-11T08:55:58.547Z,32811
2019-05-11T09:00:58.197Z,32296
2019-05-11T09:15:58.806Z,30515
2019-05-11T09:30:57.904Z,30312
2019-05-11T09:35:58.295Z,30317
2019-05-11T09:55:58.649Z,29599
2019-05-11T10:00:58.667Z,29045
2019-05-11T10:05:58.181Z,30434
2019-05-11T10:10:58.226Z,30900
2019-05-11T10:16:04.169Z,30400
2019-05-11T10:20:58.766Z,31605
2019-05-11T10:25:58.751Z,32863
2019-05-11T10:30:58.633Z,31007
2019-05-11T10:35:59.831Z,30847
2019-05-11T10:40:58.838Z,31049
2019-05-11T10:45:59.011Z,31129
2019-05-11T10:50:59.170Z,30652
2019-05-11T10:55:59.261Z,30773
2019-05-11T11:00:49.353Z,30880
2019-05-11T11:05:59.443Z,30360
2019-05-11T11:10:59.561Z,29146
2019-05-11T11:16:01.989Z,30080
2019-05-11T11:20:59.759Z,32194
2019-05-11T11:25:59.870Z,32194
2019-05-11T11:30:59.927Z,32778
2019-05-11T11:36:00.040Z,34354
2019-05-11T11:41:00.134Z,33294
2019-05-11T11:46:00.242Z,32177
2019-05-11T12:10:30.778Z,28442
2019-05-11T12:15:30.909Z,28362
2019-05-11T12:20:30.991Z,27203
2019-05-11T12:30:31.220Z,28149
2019-05-11T12:45:31.446Z,31304
2019-05-11T12:55:42.150Z,33017
2019-05-11T13:00:31.790Z,32983
2019-05-11T13:15:32.115Z,30485
2019-05-11T13:28:52.476Z,33790
2019-05-11T13:33:52.616Z,34007
2019-05-11T14:03:33.253Z,33819
2019-05-11T14:18:33.527Z,32963
2019-05-11T14:23:43.702Z,33582
2019-05-11T14:33:33.878Z,33013
2019-05-11T14:53:34.344Z,32763
2019-05-11T15:08:34.610Z,32792
2019-05-11T15:23:34.993Z,29918
2019-05-11T15:28:45.039Z,30872
2019-05-11T15:33:45.104Z,30836
2019-05-11T16:03:35.669Z,27352
2019-05-11T16:05:35.696Z,24639
2019-05-11T16:10:38.208Z,24639
2019-05-11T16:15:37.821Z,23128
2019-05-11T16:20:35.995Z,23158
2019-05-11T16:25:38.184Z,21509
2019-05-11T16:30:37.845Z,20965
2019-05-11T16:35:38.229Z,20282
2019-05-11T16:40:38.559Z,20643
2019-05-11T16:45:36.553Z,25138
2019-05-11T16:50:38.314Z,25911
2019-05-11T16:55:37.677Z,24591
2019-05-11T17:00:39.231Z,23321
2019-05-11T17:05:29.874Z,22863
2019-05-11T17:10:37.095Z,23438
2019-05-11T17:15:28.821Z,23412
2019-05-11T17:20:37.276Z,23941
2019-05-11T17:25:28.753Z,20935
2019-05-11T17:35:27.630Z,15365
2019-05-11T17:40:28.471Z,14910
2019-05-11T17:45:37.852Z,13256
2019-05-11T17:50:28.261Z,13346
2019-05-11T17:55:28.581Z,13519
2019-05-11T18:00:39.168Z,13847
2019-05-11T18:05:08.879Z,11322
2019-05-11T18:20:16.717Z,7583
2019-05-11T18:35:08.815Z,3847
2019-05-11T18:40:19.077Z,1884
